Time;durP1;ratioP1;P1;durP2;ratioP2;P2;SDS_P1;SDS_P2;PMS_P1;PMS_P2;Temp;Humidity;BMP_temperature;BMP_pressure;BME280_temperature;BME280_humidity;BME280_pressure;Samples;Min_cycle;Max_cycle;Signal;HPM_P1;HPM_P2
2021/06/28 00:01:30;;;;;;;3.40;2.80;;;27.30;54.90;;;;;;4985070;28;20634;-64
2021/06/28 00:03:59;;;;;;;3.53;3.07;;;27.30;55.00;;;;;;4991203;28;20185;-64
2021/06/28 00:06:29;;;;;;;4.07;2.83;;;27.30;54.80;;;;;;4984319;28;20271;-64
2021/06/28 00:08:56;;;;;;;3.40;3.10;;;27.30;54.80;;;;;;4991122;28;20220;-65
2021/06/28 00:11:26;;;;;;;3.57;2.67;;;27.30;54.70;;;;;;4982485;28;20205;-64
2021/06/28 00:13:58;;;;;;;3.97;3.00;;;27.20;54.60;;;;;;4974855;28;20247;-64
2021/06/28 00:16:31;;;;;;;3.43;3.13;;;27.20;54.50;;;;;;4981085;28;20219;-64
2021/06/28 00:19:02;;;;;;;3.97;2.70;;;27.30;54.50;;;;;;4990206;28;20205;-63
2021/06/28 00:21:31;;;;;;;3.07;2.87;;;27.20;54.50;;;;;;4984367;28;20749;-65
2021/06/28 00:23:58;;;;;;;3.10;2.90;;;27.20;54.50;;;;;;4988095;28;20649;-64
2021/06/28 00:26:26;;;;;;;3.13;2.93;;;27.20;54.50;;;;;;4979798;28;20694;-63
2021/06/28 00:28:53;;;;;;;2.83;2.63;;;27.20;54.50;;;;;;4967066;28;20204;-64
2021/06/28 00:31:25;;;;;;;3.67;2.83;;;27.20;54.50;;;;;;4987350;28;20193;-64
2021/06/28 00:33:56;;;;;;;3.03;2.60;;;27.20;54.50;;;;;;4988439;28;20221;-64
2021/06/28 00:36:25;;;;;;;3.97;2.63;;;27.20;54.50;;;;;;4977890;28;20237;-64
2021/06/28 00:38:53;;;;;;;2.77;2.57;;;27.20;54.40;;;;;;4981122;28;20694;-64
2021/06/28 00:41:20;;;;;;;3.23;3.00;;;27.20;54.50;;;;;;4989980;28;20200;-64
2021/06/28 00:43:47;;;;;;;3.37;2.40;;;27.10;54.50;;;;;;4985782;28;20278;-64
2021/06/28 00:46:14;;;;;;;3.03;2.40;;;27.20;54.40;;;;;;4987477;28;20208;-64
2021/06/28 00:48:43;;;;;;;2.97;2.77;;;27.10;54.50;;;;;;4984035;28;20423;-64
2021/06/28 00:51:12;;;;;;;3.00;2.80;;;27.10;54.40;;;;;;4982167;28;20231;-64
2021/06/28 00:53:43;;;;;;;2.90;2.70;;;27.10;54.40;;;;;;4981483;28;20633;-64
2021/06/28 00:56:10;;;;;;;2.80;2.60;;;27.10;54.40;;;;;;4986171;28;20224;-64
2021/06/28 00:58:42;;;;;;;2.67;2.47;;;27.10;54.40;;;;;;4983133;28;20523;-64
2021/06/28 01:01:11;;;;;;;2.60;2.40;;;27.10;54.30;;;;;;4987802;28;20232;-64
2021/06/28 01:03:39;;;;;;;3.33;2.63;;;27.10;54.30;;;;;;4983368;28;20243;-64
2021/06/28 01:06:13;;;;;;;3.83;2.90;;;27.10;54.40;;;;;;4978005;28;20230;-64
2021/06/28 01:08:44;;;;;;;2.70;2.50;;;27.10;54.40;;;;;;4982694;28;20209;-64
2021/06/28 01:11:11;;;;;;;2.70;2.50;;;27.10;54.30;;;;;;4985932;28;20221;-64
2021/06/28 01:13:41;;;;;;;3.27;2.53;;;27.10;54.40;;;;;;4991074;28;20199;-64
2021/06/28 01:16:10;;;;;;;3.10;2.80;;;27.10;54.40;;;;;;4986765;28;20238;-64
2021/06/28 01:18:38;;;;;;;3.07;2.87;;;27.10;54.40;;;;;;4981991;28;20664;-64
2021/06/28 01:21:11;;;;;;;2.80;2.60;;;27.00;54.30;;;;;;4976444;28;20201;-64
2021/06/28 01:23:40;;;;;;;2.73;2.53;;;27.00;54.30;;;;;;4987967;28;20759;-64
2021/06/28 01:26:11;;;;;;;2.90;2.70;;;27.00;54.30;;;;;;4984037;28;20703;-64
2021/06/28 01:28:39;;;;;;;2.87;2.67;;;27.00;54.30;;;;;;4986867;28;20856;-64
2021/06/28 01:31:11;;;;;;;4.13;3.17;;;27.00;54.30;;;;;;4980366;28;20213;-64
2021/06/28 01:33:41;;;;;;;3.00;2.60;;;27.00;54.30;;;;;;4987201;28;20287;-64
2021/06/28 01:36:09;;;;;;;3.10;2.90;;;27.00;54.30;;;;;;4982686;28;20221;-64
2021/06/28 01:38:37;;;;;;;3.33;3.03;;;27.00;54.30;;;;;;4992434;28;20239;-64
2021/06/28 01:41:05;;;;;;;2.70;2.50;;;27.00;54.30;;;;;;4985508;28;20193;-64
2021/06/28 01:43:34;;;;;;;3.63;2.90;;;27.00;54.40;;;;;;4982393;28;20626;-64
2021/06/28 01:46:02;;;;;;;2.83;2.63;;;27.00;54.40;;;;;;4983137;28;20212;-64
2021/06/28 01:48:31;;;;;;;3.03;2.83;;;27.00;54.30;;;;;;4975274;28;20221;-64
2021/06/28 01:50:58;;;;;;;2.87;2.67;;;27.00;54.40;;;;;;4983222;28;20209;-64
2021/06/28 01:53:25;;;;;;;2.60;2.40;;;27.00;54.40;;;;;;4989786;28;20192;-64
2021/06/28 01:55:53;;;;;;;2.90;2.70;;;26.90;54.40;;;;;;4981782;28;20209;-64
2021/06/28 01:58:21;;;;;;;2.90;2.70;;;26.90;54.40;;;;;;4980789;28;20205;-64
2021/06/28 02:00:55;;;;;;;2.90;2.70;;;26.90;54.30;;;;;;4982657;28;20223;-65
2021/06/28 02:03:26;;;;;;;3.10;2.90;;;26.90;54.30;;;;;;4986131;28;20252;-64
2021/06/28 02:05:56;;;;;;;2.90;2.70;;;26.90;54.40;;;;;;4982079;28;20208;-64
2021/06/28 02:08:28;;;;;;;2.50;2.30;;;26.90;54.40;;;;;;4982640;28;20236;-64
2021/06/28 02:11:01;;;;;;;2.60;2.40;;;26.90;54.40;;;;;;4980564;28;20201;-65
2021/06/28 02:13:35;;;;;;;2.63;2.47;;;26.90;54.30;;;;;;4968481;28;20204;-65
2021/06/28 02:16:04;;;;;;;2.63;2.43;;;26.90;54.30;;;;;;4969347;28;20228;-67
2021/06/28 02:18:33;;;;;;;3.50;2.60;;;26.90;54.40;;;;;;4980665;28;20212;-64
2021/06/28 02:21:01;;;;;;;2.70;2.50;;;26.90;54.40;;;;;;4989926;28;20204;-66
2021/06/28 02:23:37;;;;;;;2.93;2.73;;;26.90;54.30;;;;;;4981773;28;20219;-64
2021/06/28 02:26:10;;;;;;;3.03;2.37;;;26.90;54.40;;;;;;4982507;28;20231;-65
2021/06/28 02:28:47;;;;;;;3.13;2.60;;;26.90;54.30;;;;;;4977987;28;20212;-64
2021/06/28 02:31:20;;;;;;;3.17;2.87;;;26.90;54.40;;;;;;4977334;28;20219;-64
2021/06/28 02:33:51;;;;;;;2.73;2.53;;;26.90;54.40;;;;;;4984713;28;20569;-65
2021/06/28 02:36:33;;;;;;;2.27;2.17;;;26.90;54.30;;;;;;4988501;28;20241;-65
2021/06/28 02:39:01;;;;;;;4.33;2.47;;;26.90;54.30;;;;;;4982845;28;20201;-65
2021/06/28 02:41:29;;;;;;;4.13;2.80;;;26.80;54.20;;;;;;4982650;28;20288;-65
2021/06/28 02:43:56;;;;;;;2.43;2.13;;;26.80;54.30;;;;;;4982389;28;20201;-65
2021/06/28 02:46:25;;;;;;;3.00;2.70;;;26.80;54.30;;;;;;4983336;28;20209;-65
2021/06/28 02:48:56;;;;;;;3.37;2.83;;;26.80;54.30;;;;;;4981144;28;20201;-65
2021/06/28 02:51:26;;;;;;;2.90;2.70;;;26.80;54.30;;;;;;4969863;28;20196;-65
2021/06/28 02:53:57;;;;;;;2.50;2.30;;;26.80;54.20;;;;;;4973483;28;20193;-65
2021/06/28 02:56:34;;;;;;;3.47;2.80;;;26.80;54.30;;;;;;4988381;28;20227;-65
2021/06/28 02:59:03;;;;;;;2.90;2.70;;;26.80;54.20;;;;;;4992356;28;20205;-65
2021/06/28 03:01:30;;;;;;;2.97;2.70;;;26.80;54.20;;;;;;4988361;28;20196;-64
2021/06/28 03:04:00;;;;;;;2.67;2.47;;;26.80;54.20;;;;;;4993061;28;20213;-64
2021/06/28 03:06:29;;;;;;;2.93;2.73;;;26.80;54.20;;;;;;4984214;28;20205;-65
2021/06/28 03:09:01;;;;;;;2.70;2.50;;;26.80;54.20;;;;;;4986897;28;20230;-65
2021/06/28 03:11:30;;;;;;;2.80;2.60;;;26.80;54.20;;;;;;4988574;28;20209;-65
2021/06/28 03:14:01;;;;;;;3.13;2.60;;;26.80;54.20;;;;;;4986532;28;20209;-65
2021/06/28 03:16:31;;;;;;;3.00;2.70;;;26.80;54.20;;;;;;4978257;28;20564;-65
2021/06/28 03:19:00;;;;;;;2.90;2.60;;;26.80;54.20;;;;;;4979385;28;20577;-65
2021/06/28 03:21:29;;;;;;;2.60;2.43;;;26.80;54.20;;;;;;4988626;28;20199;-64
2021/06/28 03:23:59;;;;;;;2.50;2.30;;;26.70;54.20;;;;;;4979971;28;20280;-64
2021/06/28 03:26:28;;;;;;;2.70;2.50;;;26.80;54.20;;;;;;4977018;28;20237;-64
2021/06/28 03:28:56;;;;;;;2.93;2.73;;;26.70;54.20;;;;;;4981477;28;20204;-65
2021/06/28 03:31:27;;;;;;;2.87;2.67;;;26.70;54.10;;;;;;4984711;28;20260;-65
2021/06/28 03:33:55;;;;;;;3.60;2.60;;;26.70;54.20;;;;;;4981974;28;20287;-65
2021/06/28 03:36:28;;;;;;;2.67;2.47;;;26.70;54.10;;;;;;4979200;28;20267;-65
2021/06/28 03:38:55;;;;;;;2.73;2.53;;;26.70;54.10;;;;;;4980393;28;20753;-65
2021/06/28 03:41:30;;;;;;;2.63;2.43;;;26.70;54.10;;;;;;4975959;28;20193;-64
2021/06/28 03:43:59;;;;;;;2.70;2.50;;;26.70;54.20;;;;;;4977678;28;20205;-65
2021/06/28 03:46:27;;;;;;;3.00;2.77;;;26.70;54.10;;;;;;4985222;28;20200;-64
2021/06/28 03:48:57;;;;;;;2.90;2.70;;;26.70;54.20;;;;;;4988098;28;20200;-64
2021/06/28 03:51:24;;;;;;;3.00;2.77;;;26.60;54.10;;;;;;4973191;28;20208;-65
2021/06/28 03:53:54;;;;;;;2.70;2.50;;;26.60;54.10;;;;;;4988766;28;20234;-64
2021/06/28 03:56:21;;;;;;;2.50;2.30;;;26.60;54.00;;;;;;4990066;28;20515;-66
2021/06/28 03:58:49;;;;;;;2.87;2.67;;;26.60;54.00;;;;;;4995487;28;20224;-65
2021/06/28 04:01:24;;;;;;;2.80;2.60;;;26.60;54.00;;;;;;4991591;28;20203;-64
2021/06/28 04:03:54;;;;;;;2.50;2.30;;;26.70;54.10;;;;;;4986122;28;20703;-64
2021/06/28 04:06:25;;;;;;;2.70;2.43;;;26.60;54.00;;;;;;4986797;28;20201;-64
2021/06/28 04:08:55;;;;;;;2.80;2.60;;;26.60;54.00;;;;;;4980187;28;20200;-64
2021/06/28 04:11:23;;;;;;;2.90;2.60;;;26.60;54.00;;;;;;4990086;28;20613;-66
2021/06/28 04:13:53;;;;;;;2.97;2.30;;;26.60;54.10;;;;;;4988997;28;20219;-66
2021/06/28 04:16:19;;;;;;;2.47;2.37;;;26.60;54.00;;;;;;4988288;28;20215;-66
2021/06/28 04:18:52;;;;;;;2.60;2.40;;;26.60;54.10;;;;;;4983870;28;20684;-65
2021/06/28 04:21:20;;;;;;;3.97;2.30;;;26.60;54.00;;;;;;4989938;28;20204;-65
2021/06/28 04:24:01;;;;;;;2.50;2.30;;;26.60;54.00;;;;;;4990254;28;20208;-65
2021/06/28 04:26:33;;;;;;;2.77;2.57;;;26.60;54.10;;;;;;4990271;28;20240;-64
2021/06/28 04:29:05;;;;;;;2.70;2.50;;;26.60;54.10;;;;;;4984339;28;20263;-64
2021/06/28 04:31:33;;;;;;;3.40;2.60;;;26.60;54.00;;;;;;4976234;28;20201;-65
2021/06/28 04:34:02;;;;;;;2.60;2.40;;;26.60;54.10;;;;;;4980351;28;20201;-66
2021/06/28 04:36:30;;;;;;;4.30;2.67;;;26.60;54.10;;;;;;4984970;28;20899;-64
2021/06/28 04:38:59;;;;;;;2.60;2.40;;;26.60;54.10;;;;;;4982325;28;20207;-64
2021/06/28 04:41:28;;;;;;;2.77;2.53;;;26.60;54.10;;;;;;4978707;28;20192;-64
2021/06/28 04:43:57;;;;;;;2.63;2.43;;;26.60;54.10;;;;;;4980616;28;20267;-63
2021/06/28 04:46:29;;;;;;;2.73;2.60;;;26.60;54.10;;;;;;4978984;28;20204;-64
2021/06/28 04:48:58;;;;;;;3.87;2.27;;;26.60;54.00;;;;;;4980012;28;20208;-64
2021/06/28 04:51:27;;;;;;;2.57;2.37;;;26.50;54.00;;;;;;4990571;28;20200;-67
2021/06/28 04:53:56;;;;;;;2.87;2.50;;;26.60;54.00;;;;;;4969897;28;20579;-67
2021/06/28 04:56:23;;;;;;;2.70;2.50;;;26.50;54.00;;;;;;4990947;28;20220;-64
2021/06/28 04:58:53;;;;;;;2.90;2.40;;;26.60;54.00;;;;;;4982171;28;20204;-65
2021/06/28 05:01:26;;;;;;;2.73;2.53;;;26.50;54.00;;;;;;4982535;28;20219;-65
2021/06/28 05:03:54;;;;;;;2.40;2.20;;;26.60;54.10;;;;;;4982299;28;20875;-65
2021/06/28 05:06:23;;;;;;;3.10;2.90;;;26.60;54.10;;;;;;4978078;28;20204;-65
2021/06/28 05:08:50;;;;;;;3.60;2.67;;;26.60;54.10;;;;;;4985219;28;20216;-65
2021/06/28 05:11:18;;;;;;;3.00;2.80;;;26.60;54.10;;;;;;4979506;28;20196;-65
2021/06/28 05:13:47;;;;;;;3.20;2.90;;;26.50;54.10;;;;;;4979954;28;20631;-66
2021/06/28 05:16:18;;;;;;;2.80;2.60;;;26.50;54.00;;;;;;4984131;28;20236;-66
2021/06/28 05:18:48;;;;;;;3.67;2.80;;;26.50;54.10;;;;;;4985413;28;20197;-66
2021/06/28 05:21:15;;;;;;;3.57;3.27;;;26.50;54.10;;;;;;4984391;28;20201;-64
2021/06/28 05:23:43;;;;;;;3.47;3.00;;;26.50;54.20;;;;;;4985601;28;20201;-65
2021/06/28 05:26:12;;;;;;;3.77;2.73;;;26.50;54.20;;;;;;4979584;28;20319;-65
2021/06/28 05:28:40;;;;;;;5.67;3.33;;;26.50;54.40;;;;;;4991320;28;20210;-65
2021/06/28 05:31:07;;;;;;;6.17;3.37;;;26.50;54.40;;;;;;4983590;28;20564;-66
2021/06/28 05:33:36;;;;;;;4.47;3.00;;;26.60;54.20;;;;;;4996104;28;20204;-66
2021/06/28 05:36:05;;;;;;;5.17;3.50;;;26.50;54.30;;;;;;4979695;28;20256;-64
2021/06/28 05:38:34;;;;;;;6.50;3.73;;;26.50;54.60;;;;;;4983205;28;20202;-64
2021/06/28 05:41:05;;;;;;;4.37;3.60;;;26.60;54.50;;;;;;4980661;28;20207;-65
2021/06/28 05:43:38;;;;;;;4.40;3.43;;;26.50;54.50;;;;;;4980633;28;20208;-66
2021/06/28 05:46:05;;;;;;;8.53;3.27;;;26.60;54.50;;;;;;4982175;28;20208;-64
2021/06/28 05:48:33;;;;;;;3.60;2.77;;;26.50;54.50;;;;;;4986907;28;20251;-66
2021/06/28 05:51:00;;;;;;;26.17;10.77;;;26.50;54.10;;;;;;4981360;28;20232;-68
2021/06/28 05:53:27;;;;;;;32.77;11.47;;;26.60;56.60;;;;;;4972041;28;20212;-69
2021/06/28 05:55:58;;;;;;;21.17;11.07;;;26.60;57.00;;;;;;4986750;28;20604;-68
2021/06/28 05:58:28;;;;;;;21.13;9.90;;;26.60;57.30;;;;;;4985773;28;20209;-68
2021/06/28 06:00:58;;;;;;;17.47;9.37;;;26.60;57.40;;;;;;4979506;28;20200;-69
2021/06/28 06:03:26;;;;;;;21.17;9.63;;;26.60;57.20;;;;;;4979575;28;20208;-69
2021/06/28 06:05:54;;;;;;;12.67;8.10;;;26.70;57.40;;;;;;4980766;28;20618;-70
2021/06/28 06:08:24;;;;;;;9.80;7.57;;;26.70;57.20;;;;;;4976415;28;20754;-70
2021/06/28 06:10:55;;;;;;;9.93;7.27;;;26.80;57.20;;;;;;4978397;28;20641;-69
2021/06/28 06:13:23;;;;;;;9.60;8.10;;;26.80;57.20;;;;;;4977164;28;20205;-70
2021/06/28 06:15:54;;;;;;;9.37;8.17;;;26.90;57.30;;;;;;4985394;28;20193;-69
2021/06/28 06:18:21;;;;;;;10.23;9.23;;;26.90;57.40;;;;;;4982231;28;20696;-68
2021/06/28 06:20:53;;;;;;;12.50;9.20;;;26.90;57.90;;;;;;4984813;28;20192;-69
2021/06/28 06:23:21;;;;;;;10.73;9.67;;;26.90;57.90;;;;;;4978558;28;20200;-70
2021/06/28 06:25:50;;;;;;;11.67;10.57;;;26.90;57.60;;;;;;4986377;28;20666;-67
2021/06/28 06:28:18;;;;;;;11.87;10.70;;;27.00;57.60;;;;;;4985294;28;20212;-72
2021/06/28 06:30:47;;;;;;;12.37;11.17;;;27.00;57.60;;;;;;4984163;28;20204;-67
2021/06/28 06:33:16;;;;;;;11.50;10.60;;;27.00;57.60;;;;;;4980721;28;20197;-68
2021/06/28 06:35:49;;;;;;;12.50;10.90;;;27.00;57.30;;;;;;4989530;28;20674;-70
2021/06/28 06:38:17;;;;;;;12.67;11.33;;;27.10;57.40;;;;;;4982575;28;20676;-70
2021/06/28 06:40:48;;;;;;;12.03;10.73;;;27.10;57.70;;;;;;4983858;28;20925;-70
2021/06/28 06:43:19;;;;;;;12.20;11.00;;;27.10;57.70;;;;;;4981557;28;20204;-68
2021/06/28 06:45:50;;;;;;;13.37;11.00;;;27.10;57.80;;;;;;4978239;28;20208;-68
2021/06/28 06:48:23;;;;;;;12.50;11.30;;;27.10;59.10;;;;;;4979181;28;20216;-71
2021/06/28 06:50:50;;;;;;;12.53;11.40;;;27.20;58.50;;;;;;4964650;28;20705;-68
2021/06/28 06:53:20;;;;;;;12.13;11.17;;;27.20;58.50;;;;;;4983023;28;20196;-71
2021/06/28 06:55:49;;;;;;;13.33;11.93;;;27.20;58.70;;;;;;4986039;28;20201;-70
2021/06/28 06:58:21;;;;;;;12.67;11.37;;;27.20;58.50;;;;;;4982583;28;20653;-66
2021/06/28 07:00:53;;;;;;;13.70;12.47;;;27.20;58.30;;;;;;4980158;28;20238;-65
2021/06/28 07:03:23;;;;;;;15.10;13.53;;;27.30;58.20;;;;;;4986273;28;20192;-68
2021/06/28 07:05:52;;;;;;;13.27;12.07;;;27.30;59.30;;;;;;4981145;28;20228;-68
2021/06/28 07:08:19;;;;;;;12.90;11.43;;;27.30;59.20;;;;;;4990357;28;20196;-69
2021/06/28 07:10:48;;;;;;;14.60;11.50;;;27.40;59.10;;;;;;4990780;28;20205;-70
2021/06/28 07:13:17;;;;;;;11.60;10.53;;;27.40;59.20;;;;;;4984313;28;20201;-71
2021/06/28 07:15:47;;;;;;;11.43;10.33;;;27.40;60.10;;;;;;4985845;28;20211;-68
2021/06/28 07:18:18;;;;;;;14.07;10.33;;;27.50;59.70;;;;;;4982851;28;20224;-70
2021/06/28 07:20:49;;;;;;;11.90;9.90;;;27.60;59.60;;;;;;4981824;28;20209;-70
2021/06/28 07:23:20;;;;;;;11.87;10.20;;;27.60;59.30;;;;;;4984397;28;20188;-68
2021/06/28 07:25:49;;;;;;;11.80;9.57;;;27.70;59.50;;;;;;4984058;28;20243;-70
2021/06/28 07:28:21;;;;;;;10.77;9.67;;;27.70;59.20;;;;;;4984133;28;20189;-68
2021/06/28 07:30:49;;;;;;;11.23;10.00;;;27.70;59.30;;;;;;4969563;28;20212;-68
2021/06/28 07:33:18;;;;;;;10.23;9.33;;;27.80;59.10;;;;;;4984060;28;20267;-68
2021/06/28 07:35:45;;;;;;;11.23;9.23;;;27.80;59.00;;;;;;4981867;28;20216;-69
2021/06/28 07:38:13;;;;;;;10.30;9.20;;;27.90;59.00;;;;;;4983276;28;20227;-71
2021/06/28 07:40:42;;;;;;;10.63;9.53;;;27.90;58.80;;;;;;4983871;28;20300;-67
2021/06/28 07:43:10;;;;;;;10.43;9.50;;;28.00;58.60;;;;;;4979257;28;20607;-67
2021/06/28 07:45:40;;;;;;;9.87;8.97;;;28.00;58.70;;;;;;4989383;28;20213;-71
2021/06/28 07:48:08;;;;;;;10.20;9.20;;;28.00;58.70;;;;;;4982126;28;20260;-72
2021/06/28 07:50:37;;;;;;;11.20;10.20;;;28.00;58.50;;;;;;4989007;28;20324;-71
2021/06/28 07:53:04;;;;;;;11.07;9.97;;;28.00;58.80;;;;;;4986244;28;20200;-70
2021/06/28 07:55:38;;;;;;;11.90;10.90;;;28.10;58.80;;;;;;4992547;28;20259;-69
2021/06/28 07:58:04;;;;;;;12.33;11.23;;;28.10;58.60;;;;;;4986804;28;20223;-68
2021/06/28 08:00:33;;;;;;;11.57;10.47;;;28.10;58.30;;;;;;4993025;28;20199;-68
2021/06/28 08:03:04;;;;;;;10.27;9.13;;;28.10;58.30;;;;;;4987222;28;20283;-68
2021/06/28 08:05:31;;;;;;;10.60;9.67;;;28.10;58.10;;;;;;4984911;28;20522;-70
2021/06/28 08:08:01;;;;;;;11.50;10.60;;;28.10;58.40;;;;;;4981022;28;20216;-68
2021/06/28 08:10:30;;;;;;;11.47;10.53;;;28.20;58.40;;;;;;4986909;28;20212;-68
2021/06/28 08:13:02;;;;;;;12.07;10.90;;;28.20;58.20;;;;;;4982010;28;20205;-66
2021/06/28 08:15:30;;;;;;;11.27;10.30;;;28.20;58.00;;;;;;4993854;28;20208;-69
2021/06/28 08:17:58;;;;;;;10.50;9.40;;;28.20;58.00;;;;;;4983303;28;20240;-67
2021/06/28 08:20:24;;;;;;;13.20;9.90;;;28.30;58.10;;;;;;4985681;28;20196;-66
2021/06/28 08:22:55;;;;;;;11.23;9.17;;;28.30;57.80;;;;;;4982949;28;20560;-67
2021/06/28 08:25:26;;;;;;;9.67;8.77;;;28.30;57.70;;;;;;4983545;28;20850;-66
2021/06/28 08:27:55;;;;;;;9.53;8.60;;;28.40;57.70;;;;;;4981613;28;20336;-66
2021/06/28 08:30:30;;;;;;;9.90;8.90;;;28.40;57.70;;;;;;4989064;28;20188;-69
2021/06/28 08:32:58;;;;;;;9.07;8.20;;;28.40;57.60;;;;;;4982213;28;20267;-68
2021/06/28 08:35:27;;;;;;;9.03;7.83;;;28.50;57.70;;;;;;4989260;28;20251;-67
2021/06/28 08:37:59;;;;;;;9.67;8.77;;;28.50;57.50;;;;;;4980123;28;20224;-68
2021/06/28 08:40:27;;;;;;;8.97;8.17;;;28.50;57.80;;;;;;4983100;28;20857;-68
2021/06/28 08:42:59;;;;;;;8.97;8.13;;;28.60;57.60;;;;;;4982500;28;20220;-67
2021/06/28 08:45:36;;;;;;;8.37;7.67;;;28.60;57.40;;;;;;4989762;28;20190;-69
2021/06/28 08:48:06;;;;;;;9.57;8.67;;;28.70;57.30;;;;;;4981619;28;20655;-65
2021/06/28 08:50:38;;;;;;;10.33;9.33;;;28.70;57.40;;;;;;4986524;28;20216;-66
2021/06/28 08:53:10;;;;;;;10.23;9.33;;;28.70;57.70;;;;;;4987156;28;20246;-67
2021/06/28 08:55:39;;;;;;;9.40;8.60;;;28.70;57.80;;;;;;4986049;28;20271;-67
2021/06/28 08:58:07;;;;;;;9.37;8.27;;;28.70;57.50;;;;;;4984439;28;20220;-67
2021/06/28 09:00:36;;;;;;;9.63;8.50;;;28.80;57.50;;;;;;4986459;28;20613;-69
2021/06/28 09:03:09;;;;;;;10.70;9.07;;;28.80;57.50;;;;;;4983484;28;20208;-64
2021/06/28 09:06:06;;;;;;;9.87;8.80;;;28.80;57.30;;;;;;4991423;28;20203;-69
2021/06/28 09:08:36;;;;;;;9.53;8.60;;;28.80;56.90;;;;;;4986822;28;20209;-70
2021/06/28 09:11:17;;;;;;;10.17;9.27;;;28.90;56.80;;;;;;4988199;28;20978;-69
2021/06/28 09:13:50;;;;;;;11.07;9.97;;;28.90;57.00;;;;;;4989545;28;20826;-69
2021/06/28 09:16:39;;;;;;;10.57;9.23;;;28.80;57.30;;;;;;4983398;28;20218;-69
2021/06/28 09:19:25;;;;;;;9.80;8.80;;;28.90;57.70;;;;;;4990826;28;20247;-69
2021/06/28 09:21:57;;;;;;;10.77;9.77;;;28.90;57.90;;;;;;4994554;28;20204;-70
2021/06/28 09:24:38;;;;;;;12.57;8.77;;;28.90;57.70;;;;;;4997292;28;20212;-67
2021/06/28 09:27:10;;;;;;;9.73;8.83;;;28.90;57.90;;;;;;4991436;28;20235;-65
2021/06/28 09:29:59;;;;;;;9.77;8.67;;;28.90;58.00;;;;;;4995799;28;20314;-65
2021/06/28 09:32:29;;;;;;;10.60;8.93;;;28.90;57.80;;;;;;4988190;28;20215;-68
2021/06/28 09:35:00;;;;;;;9.23;8.30;;;29.00;57.90;;;;;;4991941;28;20201;-67
2021/06/28 09:37:31;;;;;;;10.20;9.20;;;29.00;57.80;;;;;;4988652;28;20239;-68
2021/06/28 09:40:00;;;;;;;11.37;8.20;;;29.00;57.90;;;;;;4984554;28;20266;-68
2021/06/28 09:42:28;;;;;;;9.27;8.37;;;29.10;57.90;;;;;;4987038;28;20211;-69
2021/06/28 09:45:16;;;;;;;10.27;9.17;;;29.10;57.90;;;;;;4986550;28;20661;-66
2021/06/28 09:47:49;;;;;;;10.77;8.73;;;29.10;57.80;;;;;;4987063;28;20216;-68
2021/06/28 09:50:20;;;;;;;9.40;8.47;;;29.10;57.80;;;;;;4981838;28;20208;-68
2021/06/28 09:52:56;;;;;;;9.93;8.93;;;29.20;58.00;;;;;;4982373;28;20209;-67
2021/06/28 09:55:36;;;;;;;10.13;9.13;;;29.20;58.10;;;;;;4987782;28;20200;-70
2021/06/28 09:58:24;;;;;;;9.87;8.97;;;29.20;58.20;;;;;;5003594;28;20216;-69
2021/06/28 10:00:55;;;;;;;9.23;8.43;;;29.20;58.10;;;;;;4991497;28;20211;-71
2021/06/28 10:03:40;;;;;;;9.57;8.57;;;29.20;58.10;;;;;;4997895;28;20204;-69
2021/06/28 10:08:51;;;;;;;9.60;8.63;;;29.20;58.10;;;;;;5005598;28;20216;-67
2021/06/28 10:11:27;;;;;;;9.60;8.70;;;29.30;58.50;;;;;;4977855;28;20215;-69
2021/06/28 10:13:58;;;;;;;9.10;8.20;;;29.30;58.30;;;;;;4979085;28;20212;-67
2021/06/28 10:16:30;;;;;;;8.57;7.77;;;29.30;58.10;;;;;;4981877;28;20262;-67
2021/06/28 10:19:00;;;;;;;8.97;7.90;;;29.30;58.10;;;;;;4985390;28;20227;-66
2021/06/28 10:21:34;;;;;;;9.57;8.20;;;29.30;58.20;;;;;;4966492;28;20264;-67
2021/06/28 10:24:04;;;;;;;10.13;9.23;;;29.40;58.20;;;;;;4986025;28;20577;-67
2021/06/28 10:26:33;;;;;;;9.17;8.37;;;29.40;58.30;;;;;;4986577;28;20235;-68
2021/06/28 10:29:02;;;;;;;8.43;7.73;;;29.40;57.20;;;;;;4973324;28;20212;-68
2021/06/28 10:31:32;;;;;;;13.50;7.67;;;29.10;49.90;;;;;;4982861;28;20204;-69
2021/06/28 10:34:02;;;;;;;8.17;6.30;;;28.70;46.90;;;;;;4987174;28;20211;-68
2021/06/28 10:36:38;;;;;;;6.67;6.03;;;28.40;44.90;;;;;;4987170;28;20213;-66
2021/06/28 10:39:23;;;;;;;6.60;6.00;;;28.10;43.40;;;;;;4987352;28;20220;-67
2021/06/28 10:41:54;;;;;;;9.63;6.13;;;27.80;42.80;;;;;;4981962;28;20203;-68
2021/06/28 10:44:22;;;;;;;5.90;5.40;;;27.50;42.60;;;;;;4983350;28;20205;-66
2021/06/28 10:46:52;;;;;;;6.00;5.50;;;27.40;42.60;;;;;;4987312;28;20204;-66
2021/06/28 10:49:45;;;;;;;6.83;5.33;;;27.10;42.10;;;;;;4985048;28;20268;-65
2021/06/28 10:52:35;;;;;;;7.23;5.50;;;26.90;43.40;;;;;;4986940;28;20599;-67
2021/06/28 10:55:23;;;;;;;5.90;5.50;;;26.70;43.80;;;;;;4975314;28;20230;-68
2021/06/28 10:57:54;;;;;;;5.70;5.13;;;26.60;43.80;;;;;;4992114;28;20708;-67
2021/06/28 11:01:01;;;;;;;6.17;5.57;;;26.40;44.20;;;;;;4984891;28;20250;-71
2021/06/28 11:03:35;;;;;;;5.50;5.00;;;26.30;44.00;;;;;;4983034;28;20213;-70
2021/06/28 11:06:13;;;;;;;5.63;5.10;;;26.30;44.00;;;;;;4983416;28;20184;-65
2021/06/28 11:08:55;;;;;;;5.27;4.77;;;26.20;43.80;;;;;;4980132;28;20217;-66
2021/06/28 11:11:46;;;;;;;5.37;4.90;;;26.10;43.60;;;;;;4993707;28;20235;-69
2021/06/28 11:14:36;;;;;;;5.30;4.80;;;26.10;43.60;;;;;;4981064;28;20213;-70
2021/06/28 11:17:20;;;;;;;5.37;4.87;;;26.10;43.80;;;;;;4985249;28;20204;-67
2021/06/28 11:19:55;;;;;;;6.40;5.20;;;25.90;43.40;;;;;;4981572;28;20220;-68
2021/06/28 11:22:44;;;;;;;8.00;5.33;;;25.80;43.30;;;;;;4986561;28;20204;-68
2021/06/28 11:25:21;;;;;;;6.17;4.80;;;25.80;43.30;;;;;;4979236;28;20205;-70
2021/06/28 11:27:59;;;;;;;5.70;5.10;;;25.70;43.50;;;;;;4986836;28;20258;-71
2021/06/28 11:30:31;;;;;;;5.63;4.90;;;25.60;43.40;;;;;;4984612;28;20212;-71
2021/06/28 11:33:10;;;;;;;5.50;5.00;;;25.60;43.40;;;;;;4996966;28;20208;-71
2021/06/28 11:35:44;;;;;;;7.30;5.10;;;25.50;43.20;;;;;;4987365;28;20193;-68
2021/06/28 11:38:26;;;;;;;5.53;5.03;;;25.50;43.20;;;;;;4992936;28;20294;-69
2021/06/28 11:41:22;;;;;;;5.63;5.03;;;25.40;43.10;;;;;;4989112;28;20196;-67
2021/06/28 11:43:59;;;;;;;7.13;5.40;;;25.30;42.80;;;;;;4993440;28;20207;-72
2021/06/28 11:46:33;;;;;;;4.97;4.57;;;25.30;43.50;;;;;;4983876;28;20186;-70
2021/06/28 11:49:09;;;;;;;6.10;5.50;;;25.30;44.70;;;;;;4987440;28;20208;-69
2021/06/28 11:51:43;;;;;;;5.53;5.03;;;25.30;46.30;;;;;;4991290;28;20688;-71
2021/06/28 11:54:14;;;;;;;5.53;4.97;;;25.30;46.80;;;;;;4973896;28;20551;-67
2021/06/28 11:56:49;;;;;;;5.57;5.07;;;25.30;46.90;;;;;;4994365;28;20223;-68
2021/06/28 11:59:24;;;;;;;6.13;4.77;;;25.20;46.80;;;;;;4974109;28;20236;-69
2021/06/28 12:02:00;;;;;;;4.93;4.40;;;25.30;46.80;;;;;;4982402;28;20221;-69
2021/06/28 12:04:31;;;;;;;5.23;4.73;;;25.20;46.90;;;;;;4985496;28;20231;-68
2021/06/28 12:06:58;;;;;;;6.40;4.23;;;25.20;47.00;;;;;;4982393;28;20792;-72
2021/06/28 12:09:27;;;;;;;6.47;5.00;;;25.20;47.20;;;;;;4980089;28;20272;-72
2021/06/28 12:12:13;;;;;;;5.00;4.60;;;25.10;47.30;;;;;;4982144;28;20196;-72
2021/06/28 12:14:49;;;;;;;5.27;4.87;;;25.10;47.40;;;;;;4983161;28;20212;-72
2021/06/28 12:17:18;;;;;;;4.97;4.53;;;25.00;48.20;;;;;;4979119;28;20196;-71
2021/06/28 12:19:51;;;;;;;5.17;4.70;;;25.00;48.30;;;;;;4985462;28;20232;-71
2021/06/28 12:22:21;;;;;;;4.80;4.37;;;25.00;48.30;;;;;;4992651;28;20680;-71
2021/06/28 12:24:56;;;;;;;4.60;4.20;;;25.00;48.70;;;;;;4993122;28;20205;-72
2021/06/28 12:27:50;;;;;;;5.43;4.93;;;24.90;48.50;;;;;;4976735;28;20240;-73
2021/06/28 12:30:25;;;;;;;4.90;4.50;;;24.90;55.10;;;;;;4981939;28;20232;-73
2021/06/28 12:32:57;;;;;;;4.70;4.30;;;25.00;54.00;;;;;;4994135;28;20206;-72
2021/06/28 12:35:58;;;;;;;5.47;4.30;;;25.00;48.90;;;;;;4981244;28;20192;-71
2021/06/28 12:38:29;;;;;;;6.13;4.10;;;24.90;46.20;;;;;;4995536;28;20295;-71
2021/06/28 12:41:14;;;;;;;5.17;4.67;;;24.80;52.70;;;;;;4985661;28;20197;-67
2021/06/28 12:44:00;;;;;;;4.50;4.10;;;24.90;57.30;;;;;;4995888;28;20231;-67
2021/06/28 12:46:30;;;;;;;5.10;4.60;;;25.00;54.40;;;;;;4981352;28;20203;-69
2021/06/28 12:48:59;;;;;;;4.70;4.20;;;24.90;49.10;;;;;;4983268;28;20209;-67
2021/06/28 12:51:27;;;;;;;5.30;4.03;;;24.80;47.30;;;;;;4980869;28;20827;-68
2021/06/28 12:53:54;;;;;;;5.10;4.67;;;24.70;52.40;;;;;;4981769;28;20623;-69
2021/06/28 12:56:23;;;;;;;5.37;4.90;;;24.70;56.30;;;;;;4979376;28;20248;-70
2021/06/28 12:58:54;;;;;;;5.50;5.07;;;24.70;59.00;;;;;;4980554;28;20233;-70
2021/06/28 13:01:36;;;;;;;4.87;4.20;;;24.70;53.30;;;;;;4982811;28;20200;-68
2021/06/28 13:04:20;;;;;;;4.90;4.50;;;24.60;49.60;;;;;;4992933;28;20192;-69
2021/06/28 13:06:47;;;;;;;5.57;5.07;;;24.50;54.50;;;;;;4981754;28;20211;-70
2021/06/28 13:09:16;;;;;;;4.97;4.53;;;24.50;58.20;;;;;;4987842;28;20239;-70